Time;durP1;ratioP1;P1;durP2;ratioP2;P2;SDS_P1;SDS_P2;PMS_P1;PMS_P2;Temp;Humidity;BMP_temperature;BMP_pressure;BME280_temperature;BME280_humidity;BME280_pressure;Samples;Min_cycle;Max_cycle;Signal;HPM_P1;HPM_P2
2022/07/12 00:02:12;;;;;;;1.48;0.95;;;15.00;99.90;;;;;;5011207;28;20061;-74
2022/07/12 00:04:38;;;;;;;2.78;1.10;;;14.80;99.90;;;;;;5011760;28;20033;-74
2022/07/12 00:07:04;;;;;;;2.72;1.10;;;14.90;99.90;;;;;;5012975;28;20361;-74
2022/07/12 00:09:30;;;;;;;2.15;1.38;;;15.00;99.90;;;;;;5012411;28;20359;-74
2022/07/12 00:11:57;;;;;;;2.78;1.15;;;15.20;99.90;;;;;;5010918;28;20049;-74
2022/07/12 00:14:24;;;;;;;2.00;1.10;;;15.20;99.90;;;;;;5012262;28;20072;-74
2022/07/12 00:16:51;;;;;;;2.30;1.10;;;15.10;99.90;;;;;;5012232;28;20053;-74
2022/07/12 00:19:18;;;;;;;1.88;1.30;;;14.80;99.90;;;;;;5012572;28;20391;-74
2022/07/12 00:21:44;;;;;;;2.13;1.45;;;14.60;99.90;;;;;;4993434;28;20483;-75
2022/07/12 00:24:10;;;;;;;1.88;1.30;;;14.50;99.90;;;;;;5011972;28;20033;-75
2022/07/12 00:26:37;;;;;;;2.35;1.40;;;14.40;99.90;;;;;;5010719;28;20034;-75
2022/07/12 00:29:03;;;;;;;2.00;1.25;;;14.40;99.90;;;;;;4992505;28;20050;-74
2022/07/12 00:31:29;;;;;;;2.17;1.27;;;14.50;99.90;;;;;;5010460;28;20038;-75
2022/07/12 00:33:55;;;;;;;2.15;1.48;;;14.50;99.90;;;;;;5011822;28;20038;-75
2022/07/12 00:36:21;;;;;;;2.88;1.52;;;14.50;99.90;;;;;;5011846;28;20033;-75
2022/07/12 00:38:48;;;;;;;2.38;1.25;;;14.30;99.90;;;;;;5011706;28;20040;-75
2022/07/12 00:41:14;;;;;;;2.88;1.45;;;14.20;99.90;;;;;;5010594;28;20038;-75
2022/07/12 00:43:41;;;;;;;4.88;1.67;;;14.20;99.90;;;;;;5011484;28;20049;-72
2022/07/12 00:46:07;;;;;;;2.03;1.20;;;14.10;99.90;;;;;;5008469;28;20029;-74
2022/07/12 00:48:34;;;;;;;4.00;1.65;;;14.10;99.90;;;;;;5012026;28;20033;-74
2022/07/12 00:51:01;;;;;;;1.65;1.23;;;14.10;99.90;;;;;;5012073;28;20041;-74
2022/07/12 00:53:27;;;;;;;1.55;1.17;;;14.10;99.90;;;;;;5015777;28;20090;-74
2022/07/12 00:55:55;;;;;;;1.88;1.10;;;14.30;99.90;;;;;;5015408;28;20033;-74
2022/07/12 00:58:23;;;;;;;2.13;1.58;;;14.30;99.90;;;;;;5015716;28;20030;-74
2022/07/12 01:00:49;;;;;;;2.78;1.75;;;14.50;99.90;;;;;;5013575;28;20030;-74
2022/07/12 01:03:16;;;;;;;2.33;1.38;;;14.50;99.90;;;;;;5015126;28;20143;-74
2022/07/12 01:05:44;;;;;;;2.25;1.50;;;14.60;99.90;;;;;;5015281;28;20041;-74
2022/07/12 01:08:12;;;;;;;1.63;1.20;;;14.30;99.90;;;;;;5014943;28;20030;-74
2022/07/12 01:10:39;;;;;;;2.42;1.45;;;14.10;99.90;;;;;;5013809;28;20026;-74
2022/07/12 01:13:06;;;;;;;1.80;1.50;;;14.00;99.90;;;;;;5015540;28;20045;-74
2022/07/12 01:15:33;;;;;;;2.08;1.20;;;14.10;99.90;;;;;;4997631;28;20037;-74
2022/07/12 01:18:00;;;;;;;2.42;1.48;;;14.20;99.90;;;;;;5015364;28;20034;-74
2022/07/12 01:20:27;;;;;;;2.80;2.00;;;14.30;99.90;;;;;;5014174;28;20051;-76
2022/07/12 01:22:57;;;;;;;2.75;1.23;;;14.30;99.90;;;;;;5014617;28;20057;-74
2022/07/12 01:25:24;;;;;;;2.13;1.35;;;14.30;99.90;;;;;;5015647;28;20029;-74
2022/07/12 01:27:50;;;;;;;1.60;1.33;;;14.40;99.90;;;;;;5015265;28;20518;-74
2022/07/12 01:30:16;;;;;;;2.20;1.50;;;14.30;99.90;;;;;;5013857;28;20379;-74
2022/07/12 01:32:43;;;;;;;6.68;1.83;;;14.20;99.90;;;;;;5013922;28;20049;-76
2022/07/12 01:35:10;;;;;;;2.55;1.50;;;14.00;99.90;;;;;;5014569;28;20053;-74
2022/07/12 01:37:38;;;;;;;2.53;1.40;;;14.00;99.90;;;;;;5015081;28;20034;-79
2022/07/12 01:40:07;;;;;;;1.70;1.10;;;13.90;99.90;;;;;;4995866;28;20044;-77
2022/07/12 01:42:33;;;;;;;1.38;1.00;;;13.80;99.90;;;;;;5013868;28;20037;-75
2022/07/12 01:44:59;;;;;;;3.08;1.40;;;13.80;99.90;;;;;;4997057;28;20026;-74
2022/07/12 01:47:28;;;;;;;2.10;1.38;;;13.90;99.90;;;;;;5014506;28;20034;-74
2022/07/12 01:49:55;;;;;;;2.05;1.33;;;13.90;99.90;;;;;;5001348;28;20033;-75
2022/07/12 01:52:21;;;;;;;3.08;1.50;;;14.00;99.90;;;;;;5014165;28;20046;-74
2022/07/12 01:54:48;;;;;;;2.30;1.50;;;14.00;99.90;;;;;;5014615;28;20041;-75
2022/07/12 01:57:15;;;;;;;2.90;1.40;;;13.90;99.90;;;;;;5014778;28;20022;-74
2022/07/12 01:59:41;;;;;;;4.15;1.60;;;13.90;99.90;;;;;;5014198;28;20030;-75
2022/07/12 02:02:08;;;;;;;3.35;1.80;;;13.70;99.90;;;;;;5013221;28;20387;-77
2022/07/12 02:04:35;;;;;;;3.25;1.42;;;13.60;99.90;;;;;;5014255;28;20037;-74
2022/07/12 02:07:03;;;;;;;2.67;1.73;;;13.60;99.90;;;;;;5013927;28;20036;-75
2022/07/12 02:09:29;;;;;;;2.22;1.40;;;13.60;99.90;;;;;;5014708;28;20036;-74
2022/07/12 02:11:56;;;;;;;2.58;1.45;;;13.70;99.90;;;;;;5012717;28;20055;-75
2022/07/12 02:14:22;;;;;;;3.28;1.13;;;13.80;99.90;;;;;;5023410;28;20030;-75
2022/07/12 02:16:48;;;;;;;2.20;1.10;;;13.90;99.90;;;;;;5031065;28;20033;-79
2022/07/12 02:19:14;;;;;;;3.03;1.10;;;13.80;99.90;;;;;;5015722;28;20026;-75
2022/07/12 02:21:41;;;;;;;2.28;1.25;;;13.70;99.90;;;;;;5011826;28;20102;-75
2022/07/12 02:24:07;;;;;;;2.10;1.40;;;13.60;99.90;;;;;;5014446;28;20025;-74
2022/07/12 02:26:37;;;;;;;1.92;1.33;;;13.40;99.90;;;;;;5013015;28;20578;-75
2022/07/12 02:29:05;;;;;;;2.07;1.40;;;13.30;99.90;;;;;;5013543;28;20049;-75
2022/07/12 02:31:32;;;;;;;2.78;1.23;;;13.20;99.90;;;;;;5012020;28;20037;-75
2022/07/12 02:33:58;;;;;;;1.90;1.50;;;13.20;99.90;;;;;;5013407;28;20098;-75
2022/07/12 02:36:25;;;;;;;2.88;1.50;;;13.20;99.90;;;;;;5013837;28;20029;-75
2022/07/12 02:38:51;;;;;;;1.77;1.20;;;13.00;99.90;;;;;;5012392;28;20034;-76
2022/07/12 02:41:17;;;;;;;2.35;1.67;;;13.00;99.90;;;;;;5011964;28;20030;-74
2022/07/12 02:43:44;;;;;;;1.83;1.38;;;13.00;99.90;;;;;;5013270;28;20038;-74
2022/07/12 02:46:11;;;;;;;1.70;1.23;;;12.80;99.90;;;;;;5013916;28;20030;-75
2022/07/12 02:48:39;;;;;;;2.42;1.25;;;12.70;99.90;;;;;;5013307;28;20022;-80
2022/07/12 02:51:06;;;;;;;2.00;1.35;;;12.70;99.90;;;;;;5012626;28;20026;-74
2022/07/12 02:53:33;;;;;;;3.15;1.80;;;12.70;99.90;;;;;;5013229;28;20038;-75
2022/07/12 02:56:00;;;;;;;4.40;2.00;;;12.80;99.90;;;;;;5012673;28;20034;-75
2022/07/12 02:58:26;;;;;;;2.95;1.83;;;12.80;99.90;;;;;;4995934;28;20047;-75
2022/07/12 03:00:53;;;;;;;2.80;1.80;;;12.90;99.90;;;;;;5011249;28;20033;-74
2022/07/12 03:03:19;;;;;;;2.03;1.48;;;12.90;99.90;;;;;;5013418;28;20046;-74
2022/07/12 03:05:45;;;;;;;2.92;1.73;;;12.90;99.90;;;;;;5011971;28;20026;-75
2022/07/12 03:08:12;;;;;;;4.28;1.63;;;12.80;99.90;;;;;;5012939;28;20026;-75
2022/07/12 03:10:39;;;;;;;2.90;1.58;;;12.80;99.90;;;;;;5011825;28;20042;-80
2022/07/12 03:13:06;;;;;;;2.72;1.75;;;12.80;99.90;;;;;;5013134;28;20490;-74
2022/07/12 03:15:32;;;;;;;3.05;1.40;;;12.80;99.90;;;;;;5013666;28;20025;-74
2022/07/12 03:18:00;;;;;;;3.10;1.23;;;12.80;99.90;;;;;;5012505;28;20379;-74
2022/07/12 03:20:28;;;;;;;2.83;1.35;;;12.70;99.90;;;;;;5011986;28;20025;-75
2022/07/12 03:22:54;;;;;;;6.82;1.40;;;12.70;99.90;;;;;;5012802;28;20456;-74
2022/07/12 03:25:21;;;;;;;3.92;1.75;;;12.60;99.90;;;;;;5005717;28;20040;-74
2022/07/12 03:27:48;;;;;;;2.33;1.15;;;12.50;99.90;;;;;;5012730;28;20068;-74
2022/07/12 03:30:15;;;;;;;3.30;1.73;;;12.60;99.90;;;;;;5011171;28;20038;-74
2022/07/12 03:32:42;;;;;;;4.93;1.80;;;12.70;99.90;;;;;;5012771;28;20038;-74
2022/07/12 03:35:08;;;;;;;3.40;1.48;;;12.80;99.90;;;;;;5012858;28;20025;-74
2022/07/12 03:37:49;;;;;;;2.17;1.20;;;12.80;99.90;;;;;;4994963;28;20042;-74
2022/07/12 03:40:16;;;;;;;4.28;2.17;;;12.70;99.90;;;;;;5011723;28;20030;-75
2022/07/12 03:42:43;;;;;;;2.95;1.75;;;12.60;99.90;;;;;;5012315;28;20046;-75
2022/07/12 03:45:11;;;;;;;3.55;2.28;;;12.60;99.90;;;;;;5012667;28;20049;-75
2022/07/12 03:47:38;;;;;;;4.18;2.05;;;12.70;99.90;;;;;;5013119;28;20369;-75
2022/07/12 03:50:05;;;;;;;4.93;2.13;;;12.70;99.90;;;;;;5010558;28;20033;-76
2022/07/12 03:52:32;;;;;;;3.75;2.28;;;12.80;99.90;;;;;;5013083;28;20467;-74
2022/07/12 03:54:59;;;;;;;3.58;2.17;;;12.80;99.90;;;;;;5012605;28;20229;-74
2022/07/12 03:57:26;;;;;;;4.38;2.53;;;12.80;99.90;;;;;;5012046;28;20026;-75
2022/07/12 03:59:52;;;;;;;9.57;2.45;;;12.70;99.90;;;;;;5010979;28;20045;-75
2022/07/12 04:02:18;;;;;;;3.50;2.00;;;12.80;99.90;;;;;;5002018;28;20489;-74
2022/07/12 04:04:45;;;;;;;5.88;2.13;;;12.70;99.90;;;;;;5012463;28;20038;-75
2022/07/12 04:07:11;;;;;;;2.92;2.42;;;12.70;99.90;;;;;;5012917;28;20022;-75
2022/07/12 04:09:37;;;;;;;3.58;2.15;;;12.70;99.90;;;;;;5010858;28;20033;-77
2022/07/12 04:12:04;;;;;;;6.47;2.55;;;12.70;99.90;;;;;;5009515;28;20026;-75
2022/07/12 04:14:30;;;;;;;4.60;1.88;;;12.90;99.90;;;;;;5012365;28;20145;-75
2022/07/12 04:16:57;;;;;;;3.58;2.20;;;13.00;99.90;;;;;;5014052;28;20037;-76
2022/07/12 04:19:25;;;;;;;5.18;1.77;;;12.90;99.90;;;;;;5025496;28;20028;-77
2022/07/12 04:21:51;;;;;;;2.78;1.90;;;12.90;99.90;;;;;;5016771;28;20033;-74
2022/07/12 04:24:17;;;;;;;2.35;1.42;;;13.00;99.90;;;;;;5012783;28;20038;-75
2022/07/12 04:26:43;;;;;;;3.17;1.90;;;13.20;99.90;;;;;;5014166;28;20037;-75
2022/07/12 04:29:09;;;;;;;4.57;2.58;;;13.40;99.90;;;;;;5011044;28;20034;-75
2022/07/12 04:31:36;;;;;;;2.35;1.30;;;14.20;99.90;;;;;;5010320;28;20033;-79
2022/07/12 04:34:02;;;;;;;2.00;1.25;;;15.60;99.90;;;;;;5012001;28;20634;-75
2022/07/12 04:36:28;;;;;;;2.97;1.10;;;16.80;99.90;;;;;;5011404;28;20506;-74
2022/07/12 04:38:54;;;;;;;1.42;0.93;;;17.50;99.90;;;;;;5011947;28;20514;-74
2022/07/12 04:41:20;;;;;;;2.63;0.95;;;18.50;99.90;;;;;;5010817;28;20413;-74
2022/07/12 04:43:47;;;;;;;1.40;1.02;;;20.00;99.90;;;;;;5011185;28;20038;-74
2022/07/12 04:46:13;;;;;;;4.47;1.00;;;21.30;96.30;;;;;;5011455;28;20037;-74
2022/07/12 04:48:39;;;;;;;2.90;1.05;;;22.20;92.20;;;;;;5016984;28;20040;-80
2022/07/12 04:51:05;;;;;;;1.17;0.82;;;23.30;88.60;;;;;;5010930;28;20030;-76
2022/07/12 04:53:31;;;;;;;1.58;0.85;;;23.00;83.90;;;;;;5011550;28;20037;-74
2022/07/12 04:56:06;;;;;;;1.23;0.80;;;23.00;83.60;;;;;;5020311;28;20050;-74
2022/07/12 04:58:33;;;;;;;1.50;1.00;;;22.50;85.10;;;;;;5012058;28;20025;-73
2022/07/12 05:00:59;;;;;;;1.60;1.02;;;22.50;86.60;;;;;;5010701;28;20117;-76
2022/07/12 05:03:26;;;;;;;2.08;1.25;;;22.90;87.20;;;;;;5018082;28;20053;-76
2022/07/12 05:05:55;;;;;;;1.27;0.80;;;24.00;81.90;;;;;;5015660;28;20046;-76
2022/07/12 05:08:21;;;;;;;1.47;0.90;;;24.80;76.00;;;;;;4996811;28;20056;-76
2022/07/12 05:10:48;;;;;;;1.95;1.00;;;24.60;74.90;;;;;;5011849;28;20041;-76
2022/07/12 05:13:14;;;;;;;1.73;0.90;;;24.20;77.40;;;;;;5013295;28;20041;-76
2022/07/12 05:15:40;;;;;;;1.50;1.10;;;22.90;85.40;;;;;;5011710;28;20041;-80
2022/07/12 05:18:07;;;;;;;1.85;1.00;;;22.00;90.40;;;;;;5012770;28;20034;-77
2022/07/12 05:20:33;;;;;;;1.30;0.73;;;21.70;91.70;;;;;;5011507;28;20034;-76
2022/07/12 05:22:59;;;;;;;1.70;0.90;;;22.90;90.00;;;;;;5012120;28;20471;-76
2022/07/12 05:25:25;;;;;;;1.30;0.90;;;23.10;87.80;;;;;;5012261;28;20037;-76
2022/07/12 05:27:52;;;;;;;1.50;0.90;;;23.50;87.00;;;;;;5011661;28;20040;-78
2022/07/12 05:30:18;;;;;;;2.45;1.27;;;23.40;85.50;;;;;;4990626;28;20038;-77
2022/07/12 05:32:44;;;;;;;1.58;0.90;;;22.80;86.90;;;;;;5010259;28;20050;-76
2022/07/12 05:35:10;;;;;;;3.08;1.05;;;22.40;90.00;;;;;;5011531;28;20467;-77
2022/07/12 05:37:36;;;;;;;2.33;0.90;;;21.90;91.20;;;;;;5010704;28;20407;-76
2022/07/12 05:40:03;;;;;;;2.20;1.20;;;21.50;91.80;;;;;;4996376;28;20033;-76
2022/07/12 05:42:29;;;;;;;1.67;1.00;;;22.00;91.00;;;;;;5015511;28;20038;-76
2022/07/12 05:44:55;;;;;;;0.98;0.70;;;22.20;91.00;;;;;;5019139;28;20030;-76
2022/07/12 05:47:21;;;;;;;1.83;0.93;;;22.50;89.50;;;;;;5016107;28;20040;-75
2022/07/12 05:49:47;;;;;;;1.85;1.10;;;22.90;88.20;;;;;;5006345;28;20046;-76
2022/07/12 05:54:58;;;;;;;1.00;0.70;;;22.90;87.10;;;;;;5015460;28;20033;-77
2022/07/12 05:57:25;;;;;;;1.42;0.80;;;21.80;90.90;;;;;;5015128;28;20033;-76
2022/07/12 05:59:51;;;;;;;1.45;0.90;;;22.10;90.70;;;;;;4996182;28;20034;-75
2022/07/12 06:02:17;;;;;;;2.30;1.20;;;21.50;91.60;;;;;;5014520;28;20073;-76
2022/07/12 06:04:43;;;;;;;2.97;1.20;;;20.90;93.60;;;;;;5001312;28;20487;-77
2022/07/12 06:07:09;;;;;;;3.38;1.10;;;21.10;93.30;;;;;;5015016;28;20494;-77
2022/07/12 06:09:36;;;;;;;2.40;1.05;;;21.40;93.20;;;;;;5013688;28;20034;-77
2022/07/12 06:12:03;;;;;;;3.22;1.10;;;21.70;92.30;;;;;;5014257;28;20033;-76
2022/07/12 06:14:29;;;;;;;2.45;0.90;;;21.80;92.60;;;;;;5014299;28;20395;-78
2022/07/12 06:16:55;;;;;;;2.08;1.00;;;21.90;92.10;;;;;;5013955;28;20033;-77
2022/07/12 06:19:23;;;;;;;3.10;1.00;;;21.70;92.50;;;;;;5014442;28;20395;-79
2022/07/12 06:21:49;;;;;;;1.17;0.52;;;21.90;91.60;;;;;;5013602;28;20064;-78
2022/07/12 06:24:16;;;;;;;1.63;0.73;;;21.80;91.80;;;;;;5017281;28;20038;-73
2022/07/12 06:26:42;;;;;;;3.08;0.60;;;22.50;90.60;;;;;;5012932;28;20060;-75
2022/07/12 06:29:08;;;;;;;1.70;0.88;;;22.90;89.80;;;;;;4995975;28;20042;-74
2022/07/12 06:31:34;;;;;;;2.10;0.80;;;22.60;90.00;;;;;;4995191;28;20109;-74
2022/07/12 06:34:01;;;;;;;1.95;0.63;;;22.00;91.00;;;;;;5013246;28;20224;-73
2022/07/12 06:36:27;;;;;;;1.70;0.65;;;22.30;90.60;;;;;;5014197;28;20040;-73
2022/07/12 06:38:53;;;;;;;8.68;1.10;;;22.60;90.20;;;;;;5013314;28;20030;-74
2022/07/12 06:41:19;;;;;;;1.40;0.50;;;23.60;87.40;;;;;;5012563;28;20395;-74
2022/07/12 06:43:45;;;;;;;4.57;0.80;;;24.00;82.70;;;;;;5012962;28;20068;-74
2022/07/12 06:46:12;;;;;;;1.50;0.63;;;24.90;78.00;;;;;;5012384;28;20045;-74
2022/07/12 06:48:38;;;;;;;2.47;1.00;;;24.50;79.60;;;;;;5013979;28;20041;-74
2022/07/12 06:51:04;;;;;;;3.42;1.00;;;23.40;83.50;;;;;;5011830;28;20049;-74
2022/07/12 06:53:30;;;;;;;2.38;0.60;;;23.50;85.30;;;;;;5013720;28;20030;-73
2022/07/12 06:55:57;;;;;;;1.20;0.80;;;23.60;83.70;;;;;;5013268;28;20038;-74
2022/07/12 06:58:23;;;;;;;1.00;0.60;;;24.10;82.70;;;;;;5013302;28;20037;-73
2022/07/12 07:00:50;;;;;;;1.50;0.80;;;24.60;81.20;;;;;;5012026;28;20034;-74
2022/07/12 07:03:17;;;;;;;0.50;0.40;;;24.30;80.30;;;;;;5013448;28;20391;-74
2022/07/12 07:05:43;;;;;;;1.23;0.43;;;24.20;83.20;;;;;;5012437;28;20042;-74
2022/07/12 07:08:09;;;;;;;1.05;0.60;;;25.10;77.90;;;;;;5013304;28;20026;-74
2022/07/12 07:10:35;;;;;;;2.90;0.98;;;26.10;77.60;;;;;;5012240;28;20037;-74
2022/07/12 07:13:01;;;;;;;0.95;0.60;;;26.30;71.60;;;;;;5012828;28;20034;-73
2022/07/12 07:15:27;;;;;;;0.95;0.57;;;25.00;76.30;;;;;;5013559;28;20030;-73
2022/07/12 07:17:54;;;;;;;2.47;0.70;;;24.60;79.50;;;;;;5012729;28;20041;-74
2022/07/12 07:20:20;;;;;;;0.90;0.52;;;25.60;75.90;;;;;;5011661;28;20049;-73
2022/07/12 07:22:47;;;;;;;1.52;0.50;;;25.40;74.60;;;;;;5011940;28;20033;-74
2022/07/12 07:25:14;;;;;;;0.90;0.60;;;25.30;75.10;;;;;;5013563;28;20034;-74
2022/07/12 07:27:41;;;;;;;2.72;0.60;;;24.60;77.10;;;;;;5012853;28;20030;-73
2022/07/12 07:32:52;;;;;;;0.73;0.55;;;25.80;71.80;;;;;;5011868;28;20102;-73
2022/07/12 07:35:18;;;;;;;0.73;0.50;;;25.70;72.70;;;;;;5006386;28;20049;-73
2022/07/12 07:37:44;;;;;;;1.30;0.40;;;25.90;71.10;;;;;;5012417;28;20033;-73
2022/07/12 07:40:11;;;;;;;0.80;0.40;;;25.30;74.30;;;;;;5011395;28;20038;-72
2022/07/12 07:42:37;;;;;;;0.50;0.45;;;25.70;72.20;;;;;;5011799;28;20041;-72
2022/07/12 07:45:06;;;;;;;0.70;0.45;;;25.80;71.40;;;;;;5011680;28;20231;-73
2022/07/12 07:47:51;;;;;;;1.23;1.13;;;26.70;70.00;;;;;;5012841;28;20026;-72
2022/07/12 07:50:17;;;;;;;2.85;0.43;;;27.10;69.50;;;;;;5010936;28;20041;-73
2022/07/12 07:52:44;;;;;;;1.27;0.40;;;27.00;67.50;;;;;;4994632;28;20061;-75
2022/07/12 07:55:10;;;;;;;0.68;0.35;;;26.70;64.60;;;;;;5012370;28;20364;-72
2022/07/12 07:57:37;;;;;;;2.28;0.60;;;27.10;63.50;;;;;;5012106;28;20038;-73
2022/07/12 08:00:03;;;;;;;1.77;0.30;;;26.80;63.80;;;;;;5010332;28;20102;-73
2022/07/12 08:02:38;;;;;;;0.90;0.43;;;26.10;63.50;;;;;;5016051;28;20053;-74
2022/07/12 08:05:04;;;;;;;0.68;0.35;;;25.70;64.80;;;;;;5012706;28;20155;-73
2022/07/12 08:07:31;;;;;;;0.90;0.40;;;25.80;63.60;;;;;;5013349;28;20026;-73
2022/07/12 08:09:57;;;;;;;1.63;0.60;;;26.30;63.20;;;;;;5009999;28;20030;-74
2022/07/12 08:12:23;;;;;;;3.85;0.30;;;26.70;61.50;;;;;;5011843;28;20029;-73
2022/07/12 08:14:49;;;;;;;1.15;0.40;;;27.70;59.90;;;;;;5011393;28;20478;-74
2022/07/12 08:17:15;;;;;;;0.68;0.32;;;27.80;58.60;;;;;;4994713;28;20022;-74
2022/07/12 08:19:42;;;;;;;0.85;0.52;;;27.60;59.10;;;;;;5011317;28;20460;-73
2022/07/12 08:22:09;;;;;;;0.20;0.20;;;26.20;57.90;;;;;;5011920;28;20030;-73
2022/07/12 08:24:35;;;;;;;0.77;0.30;;;26.70;57.40;;;;;;4994763;28;20042;-73
2022/07/12 08:27:02;;;;;;;1.23;0.20;;;26.80;57.90;;;;;;5011230;28;20041;-74
2022/07/12 08:29:28;;;;;;;0.30;0.30;;;26.30;58.00;;;;;;5010436;28;20049;-73
2022/07/12 08:31:54;;;;;;;0.77;0.30;;;26.20;59.40;;;;;;5011698;28;20033;-73
2022/07/12 08:34:20;;;;;;;0.70;0.30;;;25.50;61.90;;;;;;5011422;28;20054;-71
2022/07/12 08:36:46;;;;;;;0.52;0.20;;;25.80;61.10;;;;;;5011917;28;20566;-74
2022/07/12 08:39:13;;;;;;;0.82;0.30;;;26.10;57.10;;;;;;5012155;28;20038;-75
2022/07/12 08:41:39;;;;;;;0.57;0.40;;;25.60;57.70;;;;;;5011184;28;20093;-73
2022/07/12 08:44:05;;;;;;;0.60;0.40;;;24.00;60.00;;;;;;5012045;28;20037;-73
2022/07/12 08:46:33;;;;;;;0.25;0.25;;;23.40;63.50;;;;;;5012413;28;20025;-73
2022/07/12 08:49:06;;;;;;;0.57;0.35;;;24.40;62.10;;;;;;5016132;28;20482;-73
2022/07/12 08:51:33;;;;;;;0.40;0.35;;;24.50;62.50;;;;;;5020757;28;20034;-74
2022/07/12 08:54:09;;;;;;;0.63;0.30;;;24.20;63.70;;;;;;5015186;28;20495;-71
2022/07/12 08:56:40;;;;;;;0.55;0.30;;;24.70;58.90;;;;;;5011853;28;20048;-72
2022/07/12 08:59:21;;;;;;;2.67;0.30;;;25.50;59.50;;;;;;5011300;28;20042;-73
2022/07/12 09:01:50;;;;;;;0.50;0.40;;;25.90;59.30;;;;;;5012115;28;20057;-72
2022/07/12 09:04:18;;;;;;;0.60;0.40;;;25.20;60.20;;;;;;5012035;28;20468;-72
2022/07/12 09:06:46;;;;;;;1.67;0.40;;;25.70;60.50;;;;;;4975584;28;20031;-72
2022/07/12 09:09:37;;;;;;;2.08;0.68;;;26.20;59.90;;;;;;5009283;28;20029;-74
2022/07/12 09:12:03;;;;;;;0.43;0.30;;;26.40;60.90;;;;;;5010577;28;20030;-72
2022/07/12 09:14:31;;;;;;;0.43;0.40;;;27.80;59.40;;;;;;5012435;28;20044;-72
2022/07/12 09:17:13;;;;;;;1.83;0.20;;;28.50;56.50;;;;;;5014402;28;20414;-74
2022/07/12 09:19:40;;;;;;;2.85;0.40;;;27.10;56.10;;;;;;5006172;28;20045;-72
2022/07/12 09:22:18;;;;;;;1.35;0.38;;;26.00;56.80;;;;;;5015470;28;20211;-72
2022/07/12 09:24:45;;;;;;;1.47;0.30;;;26.30;57.80;;;;;;5015249;28;20046;-72
2022/07/12 09:27:13;;;;;;;0.73;0.30;;;25.50;58.70;;;;;;5014933;28;20049;-73
2022/07/12 09:29:50;;;;;;;2.67;0.50;;;26.00;59.00;;;;;;5009595;28;20037;-73
2022/07/12 09:37:47;;;;;;;1.65;1.10;;;23.70;61.80;;;;;;5014460;28;20033;-76
2022/07/12 09:40:13;;;;;;;1.00;0.40;;;23.60;62.80;;;;;;5015033;28;20034;-73
2022/07/12 09:42:40;;;;;;;2.85;0.30;;;23.40;63.50;;;;;;5015036;28;20471;-74
2022/07/12 09:45:09;;;;;;;0.40;0.30;;;23.60;63.80;;;;;;5014466;28;20114;-73
2022/07/12 09:47:35;;;;;;;0.75;0.30;;;24.40;62.80;;;;;;5010224;28;20037;-74
2022/07/12 09:50:03;;;;;;;1.55;0.30;;;24.90;61.70;;;;;;5013479;28;20033;-73
2022/07/12 09:52:32;;;;;;;0.20;0.20;;;25.60;57.70;;;;;;5015069;28;20041;-74
2022/07/12 09:55:02;;;;;;;0.28;0.28;;;26.20;57.40;;;;;;5013999;28;20042;-73
2022/07/12 09:57:33;;;;;;;0.40;0.40;;;25.50;57.80;;;;;;5008820;28;20030;-72
2022/07/12 10:00:00;;;;;;;0.40;0.35;;;25.70;57.90;;;;;;5013048;28;20026;-72
2022/07/12 10:02:27;;;;;;;0.35;0.20;;;26.20;56.50;;;;;;5007926;28;20058;-72
2022/07/12 10:04:54;;;;;;;1.45;0.30;;;26.10;56.30;;;;;;4996406;28;20444;-73
2022/07/12 10:07:21;;;;;;;0.30;0.20;;;26.40;57.00;;;;;;5014503;28;20037;-73
2022/07/12 10:09:51;;;;;;;0.47;0.20;;;26.70;56.60;;;;;;5012928;28;20037;-75
2022/07/12 10:12:21;;;;;;;0.20;0.20;;;26.60;56.10;;;;;;5014051;28;20390;-73
2022/07/12 10:14:54;;;;;;;0.40;0.30;;;26.80;54.70;;;;;;4996287;28;20065;-75
2022/07/12 10:17:22;;;;;;;0.30;0.25;;;26.60;56.00;;;;;;5014139;28;20033;-73
2022/07/12 10:20:14;;;;;;;0.20;0.17;;;27.20;54.40;;;;;;5013198;28;20030;-76
2022/07/12 10:22:41;;;;;;;0.20;0.20;;;26.80;54.70;;;;;;5010878;28;20026;-73
2022/07/12 10:25:31;;;;;;;0.35;0.20;;;26.70;52.90;;;;;;5013520;28;20288;-74
2022/07/12 10:28:00;;;;;;;0.20;0.20;;;25.50;53.40;;;;;;5013653;28;20037;-73
2022/07/12 10:30:26;;;;;;;0.40;0.40;;;24.90;55.50;;;;;;4994781;28;20074;-74
2022/07/12 10:32:57;;;;;;;0.50;0.30;;;25.10;55.60;;;;;;5013713;28;20395;-73
2022/07/12 10:35:29;;;;;;;0.40;0.30;;;25.20;55.20;;;;;;4996733;28;20068;-72
2022/07/12 10:38:16;;;;;;;0.25;0.20;;;25.40;55.30;;;;;;5014220;28;20045;-73
2022/07/12 10:40:43;;;;;;;0.40;0.20;;;25.90;55.10;;;;;;5013319;28;20030;-72
2022/07/12 10:43:10;;;;;;;2.35;0.30;;;25.50;53.40;;;;;;5013176;28;20482;-73
2022/07/12 10:45:44;;;;;;;0.20;0.20;;;25.40;54.40;;;;;;5014108;28;20486;-73
2022/07/12 10:48:14;;;;;;;0.68;0.30;;;25.60;55.50;;;;;;5013504;28;20893;-74
2022/07/12 10:50:43;;;;;;;0.37;0.23;;;25.30;55.00;;;;;;5012967;28;20045;-73
2022/07/12 10:53:45;;;;;;;0.30;0.20;;;25.20;55.20;;;;;;5013525;28;20034;-72
2022/07/12 10:56:19;;;;;;;0.43;0.25;;;25.30;55.90;;;;;;5006756;28;20403;-73
2022/07/12 10:58:55;;;;;;;0.52;0.38;;;25.80;55.70;;;;;;5008683;28;20034;-74
2022/07/12 11:01:24;;;;;;;0.30;0.30;;;25.90;55.10;;;;;;5013020;28;20038;-74
2022/07/12 11:04:08;;;;;;;0.25;0.20;;;25.90;55.10;;;;;;5011875;28;20045;-73
2022/07/12 11:06:39;;;;;;;0.35;0.35;;;25.90;52.50;;;;;;5013857;28;20038;-73
2022/07/12 11:09:10;;;;;;;0.50;0.38;;;25.70;52.60;;;;;;5011251;28;20033;-73
2022/07/12 11:11:43;;;;;;;2.15;0.35;;;26.00;52.80;;;;;;5013825;28;20034;-73
2022/07/12 11:14:11;;;;;;;1.65;0.20;;;26.40;52.80;;;;;;4995760;28;20046;-73
2022/07/12 11:16:44;;;;;;;1.52;0.30;;;26.50;51.20;;;;;;5013997;28;20510;-73
2022/07/12 11:19:11;;;;;;;0.45;0.20;;;26.50;51.50;;;;;;4994302;28;20041;-74
2022/07/12 11:21:37;;;;;;;1.40;0.30;;;26.60;51.70;;;;;;5014006;28;20495;-73
2022/07/12 11:24:16;;;;;;;0.40;0.30;;;26.20;51.20;;;;;;5013474;28;20040;-73
2022/07/12 11:26:42;;;;;;;1.00;0.38;;;25.90;51.30;;;;;;5014422;28;20033;-73
2022/07/12 11:29:09;;;;;;;0.20;0.20;;;26.00;51.80;;;;;;5012190;28;20235;-73
2022/07/12 11:31:35;;;;;;;0.50;0.20;;;26.30;51.30;;;;;;5012964;28;20033;-73
2022/07/12 11:34:01;;;;;;;0.30;0.30;;;26.20;51.40;;;;;;5013264;28;20034;-73
2022/07/12 11:36:29;;;;;;;0.75;0.38;;;25.80;51.80;;;;;;5013577;28;20056;-73
2022/07/12 11:38:55;;;;;;;0.20;0.20;;;25.80;52.40;;;;;;5012216;28;20030;-73
2022/07/12 11:41:23;;;;;;;0.85;0.30;;;25.90;51.50;;;;;;5013142;28;20386;-73
2022/07/12 11:43:50;;;;;;;3.83;0.82;;;26.30;51.60;;;;;;5012976;28;20034;-76
2022/07/12 11:46:16;;;;;;;1.23;0.40;;;26.30;52.00;;;;;;5013221;28;20033;-73
2022/07/12 11:48:43;;;;;;;0.73;0.30;;;26.10;52.70;;;;;;5012951;28;20029;-74
2022/07/12 11:51:12;;;;;;;0.30;0.30;;;26.30;51.50;;;;;;5011714;28;20029;-72
2022/07/12 11:53:40;;;;;;;0.37;0.20;;;26.10;51.60;;;;;;5012443;28;20034;-73
2022/07/12 11:56:08;;;;;;;0.22;0.22;;;26.40;51.30;;;;;;5012347;28;20034;-72
2022/07/12 11:58:40;;;;;;;0.30;0.20;;;26.20;50.80;;;;;;5012389;28;20026;-73
2022/07/12 12:01:11;;;;;;;0.47;0.22;;;26.10;50.70;;;;;;4993584;28;20411;-73
2022/07/12 12:03:45;;;;;;;0.35;0.30;;;26.60;51.40;;;;;;5012502;28;20044;-72
2022/07/12 12:06:11;;;;;;;0.40;0.30;;;26.60;51.00;;;;;;5012696;28;20411;-72
2022/07/12 12:08:37;;;;;;;0.88;0.30;;;26.30;51.40;;;;;;5012475;28;20042;-72
2022/07/12 12:11:04;;;;;;;2.47;0.30;;;26.20;51.80;;;;;;5011373;28;20025;-72
2022/07/12 12:13:31;;;;;;;0.77;0.50;;;26.60;51.50;;;;;;5012713;28;20036;-72
2022/07/12 12:16:02;;;;;;;0.40;0.22;;;26.60;51.10;;;;;;5012364;28;20421;-71
2022/07/12 12:18:37;;;;;;;0.70;0.30;;;26.60;51.00;;;;;;5012210;28;20044;-72
2022/07/12 12:21:08;;;;;;;0.20;0.20;;;26.60;51.10;;;;;;5011633;28;20033;-72
2022/07/12 12:23:36;;;;;;;0.90;0.30;;;26.70;50.80;;;;;;5012437;28;20153;-71
2022/07/12 12:26:22;;;;;;;3.70;0.50;;;27.00;52.00;;;;;;5011983;28;20483;-71
2022/07/12 12:28:53;;;;;;;0.85;0.30;;;27.50;50.50;;;;;;5011719;28;20041;-75
2022/07/12 12:31:21;;;;;;;1.40;0.30;;;27.40;50.70;;;;;;5011877;28;20041;-72
2022/07/12 12:33:52;;;;;;;0.30;0.30;;;27.20;51.20;;;;;;5012055;28;20053;-72
2022/07/12 12:36:24;;;;;;;0.35;0.30;;;27.20;50.80;;;;;;5012350;28;20094;-73
2022/07/12 12:38:52;;;;;;;0.50;0.30;;;27.40;51.40;;;;;;5011352;28;20471;-74
2022/07/12 12:41:22;;;;;;;1.25;0.43;;;27.70;51.40;;;;;;5012155;28;20038;-75
2022/07/12 12:43:55;;;;;;;;;;;27.70;52.60;;;;;;4994593;28;20040;-72
2022/07/12 12:46:22;;;;;;;5.00;0.43;;;27.60;52.70;;;;;;4994052;28;19918;-72
2022/07/12 12:48:49;;;;;;;0.95;0.55;;;27.40;53.30;;;;;;5011484;28;20044;-73
2022/07/12 12:51:15;;;;;;;1.65;0.40;;;27.60;52.70;;;;;;5011635;28;20029;-72
2022/07/12 12:53:42;;;;;;;0.90;0.63;;;27.50;53.10;;;;;;5012050;28;20498;-75
2022/07/12 12:56:13;;;;;;;1.83;0.40;;;27.60;53.00;;;;;;5011611;28;20189;-72
2022/07/12 12:58:39;;;;;;;0.80;0.50;;;27.30;53.00;;;;;;5010937;28;20038;-73
2022/07/12 13:01:07;;;;;;;0.70;0.40;;;27.40;52.30;;;;;;5010243;28;20029;-73
2022/07/12 13:03:33;;;;;;;3.67;0.52;;;27.30;53.00;;;;;;5012464;28;20053;-73